createdAt,value
2022-11-08T00:03:57.158Z,15.20
2022-11-08T00:09:18.140Z,15.10
2022-11-08T00:14:20.384Z,14.90
2022-11-08T00:19:22.603Z,14.80
2022-11-08T00:24:25.033Z,14.90
2022-11-08T00:29:27.324Z,14.80
2022-11-08T00:34:29.612Z,14.90
2022-11-08T00:39:32.038Z,14.80
2022-11-08T00:44:34.612Z,14.70
2022-11-08T00:49:36.891Z,14.60
2022-11-08T00:54:39.176Z,14.40
2022-11-08T00:59:41.621Z,14.40
2022-11-08T01:04:43.865Z,14.50
2022-11-08T01:09:46.198Z,14.60
2022-11-08T01:14:48.461Z,14.50
2022-11-08T01:19:50.689Z,14.30
2022-11-08T01:24:52.951Z,14.20
2022-11-08T01:29:55.229Z,14.10
2022-11-08T01:34:57.612Z,14.20
2022-11-08T01:39:59.869Z,13.90
2022-11-08T01:45:09.444Z,13.80
2022-11-08T01:50:16.405Z,14.20
2022-11-08T01:55:36.192Z,14.00
2022-11-08T02:00:39.712Z,14.00
2022-11-08T02:05:42.301Z,13.80
2022-11-08T02:10:47.917Z,13.90
2022-11-08T02:15:50.444Z,13.80
2022-11-08T02:21:04.296Z,13.50
2022-11-08T02:26:06.840Z,13.40
2022-11-08T02:31:10.524Z,13.00
2022-11-08T02:36:24.181Z,12.90
2022-11-08T02:41:26.582Z,12.90
2022-11-08T02:46:28.936Z,12.70
2022-11-08T02:51:31.241Z,12.80
2022-11-08T02:56:33.549Z,12.60
2022-11-08T03:01:35.942Z,12.60
2022-11-08T03:06:38.473Z,12.50
2022-11-08T03:11:40.903Z,12.40
2022-11-08T03:16:43.150Z,12.20
2022-11-08T03:21:45.524Z,12.20
2022-11-08T03:26:47.895Z,12.10
2022-11-08T03:31:50.257Z,12.30
2022-11-08T03:36:52.478Z,12.00
2022-11-08T03:41:54.797Z,11.80
2022-11-08T03:46:57.553Z,12.00
2022-11-08T03:51:59.898Z,11.80
2022-11-08T03:57:02.198Z,11.90
2022-11-08T04:02:04.606Z,11.60
2022-11-08T04:07:07.726Z,11.60
2022-11-08T04:12:29.769Z,11.50
2022-11-08T04:17:50.809Z,11.40
2022-11-08T04:22:53.044Z,11.40
2022-11-08T04:27:55.282Z,11.40
2022-11-08T04:33:01.416Z,11.20
2022-11-08T04:38:03.782Z,11.20
2022-11-08T04:43:06.138Z,11.30
2022-11-08T04:48:09.010Z,11.00
2022-11-08T04:53:11.328Z,11.20
2022-11-08T04:58:13.796Z,11.10
2022-11-08T05:03:16.112Z,11.10
2022-11-08T05:08:18.738Z,11.10
2022-11-08T05:13:21.394Z,11.00
2022-11-08T05:18:23.726Z,10.80
2022-11-08T05:23:26.131Z,10.70
2022-11-08T05:28:28.508Z,10.80
2022-11-08T05:33:30.847Z,10.70
2022-11-08T05:38:33.779Z,11.00
2022-11-08T05:43:36.568Z,10.90
2022-11-08T05:48:39.359Z,10.80
2022-11-08T05:53:42.419Z,10.70
2022-11-08T05:58:45.524Z,10.70
2022-11-08T06:03:50.080Z,10.50
2022-11-08T06:08:53.177Z,10.60
2022-11-08T06:13:56.185Z,10.70
2022-11-08T06:18:58.578Z,10.80
2022-11-08T06:24:00.934Z,10.80
2022-11-08T06:29:03.302Z,10.70
2022-11-08T06:34:05.615Z,10.70
2022-11-08T06:39:07.975Z,10.50
2022-11-08T06:44:10.666Z,10.60
2022-11-08T06:49:13.053Z,10.70
2022-11-08T06:54:17.818Z,11.00
2022-11-08T06:59:20.444Z,10.80
2022-11-08T07:04:23.667Z,10.90
2022-11-08T07:09:26.031Z,10.90
2022-11-08T07:14:28.376Z,10.90
2022-11-08T07:19:30.689Z,10.90
2022-11-08T07:24:33.037Z,11.10
2022-11-08T07:29:35.411Z,10.90
2022-11-08T07:34:37.814Z,10.90
2022-11-08T07:39:40.227Z,11.00
2022-11-08T07:44:42.509Z,11.30
2022-11-08T07:49:44.825Z,11.40
2022-11-08T07:54:47.347Z,11.50
2022-11-08T07:59:49.714Z,11.50
2022-11-08T08:04:52.110Z,11.80
2022-11-08T08:09:55.053Z,12.00
2022-11-08T08:14:57.483Z,12.00
2022-11-08T08:19:59.805Z,12.10
2022-11-08T08:25:03.335Z,12.30
2022-11-08T08:30:08.233Z,12.30
2022-11-08T08:35:11.461Z,12.40
2022-11-08T08:40:13.721Z,12.40
2022-11-08T08:45:16.166Z,12.50
2022-11-08T08:50:18.877Z,12.60
2022-11-08T08:55:21.221Z,12.70
2022-11-08T09:05:46.996Z,12.70
2022-11-08T09:10:56.813Z,12.80
2022-11-08T09:16:01.708Z,13.10
2022-11-08T09:21:04.851Z,13.10
2022-11-08T09:26:07.243Z,13.20
2022-11-08T09:31:12.003Z,13.30
2022-11-08T09:36:14.509Z,13.50
2022-11-08T09:41:19.548Z,13.60
2022-11-08T09:46:47.828Z,13.80
2022-11-08T09:51:50.647Z,13.80
2022-11-08T09:56:54.491Z,14.00
2022-11-08T10:01:56.952Z,14.20
2022-11-08T10:07:34.954Z,14.40
2022-11-08T10:13:00.129Z,14.70
2022-11-08T10:18:10.899Z,14.90
2022-11-08T10:23:39.203Z,15.00
2022-11-08T10:28:50.244Z,15.10
2022-11-08T10:33:57.440Z,15.20
2022-11-08T10:39:23.047Z,15.70
2022-11-08T10:44:27.070Z,15.70
2022-11-08T10:49:36.522Z,15.80
2022-11-08T10:54:41.819Z,15.90
2022-11-08T10:59:45.315Z,15.80
2022-11-08T11:04:48.141Z,16.10
2022-11-08T11:09:50.488Z,16.00
2022-11-08T11:14:58.256Z,15.90
2022-11-08T11:20:01.425Z,15.90
2022-11-08T11:25:13.820Z,16.10
2022-11-08T11:30:29.178Z,16.20
2022-11-08T11:35:47.504Z,16.30
2022-11-08T11:40:53.112Z,16.20
2022-11-08T11:46:04.584Z,16.30
2022-11-08T11:51:10.640Z,16.30
2022-11-08T11:56:21.633Z,16.40
2022-11-08T12:01:45.477Z,16.70
2022-11-08T12:07:05.252Z,16.60
2022-11-08T12:12:30.668Z,16.60
2022-11-08T12:17:58.745Z,16.70
2022-11-08T12:23:06.837Z,16.60
2022-11-08T12:28:27.637Z,16.70
2022-11-08T12:33:32.928Z,16.60
2022-11-08T12:38:44.892Z,16.60
2022-11-08T12:44:16.016Z,16.60
2022-11-08T12:49:46.060Z,15.00
2022-11-08T12:54:57.529Z,16.50
2022-11-08T13:00:13.965Z,16.80
2022-11-08T13:05:37.431Z,16.90
2022-11-08T13:11:09.798Z,17.20
2022-11-08T13:16:21.226Z,17.20
2022-11-08T13:21:29.984Z,17.10
2022-11-08T13:26:33.908Z,17.10
2022-11-08T13:32:21.725Z,17.10
2022-11-08T13:38:05.554Z,17.20
2022-11-08T13:43:24.635Z,17.10
2022-11-08T13:48:36.847Z,17.00
2022-11-08T13:54:07.498Z,16.80
2022-11-08T13:59:39.241Z,16.80
2022-11-08T14:04:41.668Z,16.90
2022-11-08T14:09:51.636Z,16.80
2022-11-08T14:15:05.125Z,16.80
2022-11-08T14:20:38.341Z,16.90
2022-11-08T14:25:42.632Z,17.00
2022-11-08T14:30:50.793Z,16.90
2022-11-08T14:36:03.542Z,16.90
2022-11-08T14:41:07.253Z,18.40
2022-11-08T14:46:16.065Z,16.80
2022-11-08T14:51:18.713Z,16.80
2022-11-08T14:56:25.207Z,16.80
2022-11-08T15:01:29.301Z,16.80
2022-11-08T15:06:39.050Z,16.80
2022-11-08T15:11:42.842Z,16.80
2022-11-08T15:16:50.692Z,16.90
2022-11-08T15:21:53.283Z,16.80
2022-11-08T15:27:10.461Z,16.90
2022-11-08T15:32:17.167Z,16.80
2022-11-08T15:37:20.721Z,16.70
2022-11-08T15:42:23.170Z,16.60
2022-11-08T15:47:46.161Z,16.60
2022-11-08T15:52:53.653Z,16.70
2022-11-08T15:57:57.782Z,16.60
2022-11-08T16:03:00.100Z,16.80
2022-11-08T16:08:02.433Z,16.60
2022-11-08T16:13:05.847Z,16.50
2022-11-08T16:18:10.796Z,16.60
2022-11-08T16:23:13.955Z,16.70
2022-11-08T16:28:16.167Z,16.60
2022-11-08T16:33:21.464Z,16.60
2022-11-08T16:38:35.635Z,16.60
2022-11-08T16:43:38.085Z,16.60
2022-11-08T16:48:45.978Z,16.60
2022-11-08T16:53:49.312Z,16.70
2022-11-08T16:58:51.630Z,16.50
2022-11-08T17:03:53.846Z,16.60
2022-11-08T17:08:56.203Z,16.60
2022-11-08T17:13:58.670Z,16.60
2022-11-08T17:19:02.470Z,16.50
2022-11-08T17:24:05.100Z,16.50
2022-11-08T17:29:08.027Z,16.40
2022-11-08T17:34:10.799Z,16.50
2022-11-08T17:39:15.925Z,16.50
2022-11-08T17:44:18.253Z,16.50
2022-11-08T17:49:20.833Z,16.60
2022-11-08T17:54:23.136Z,16.60
2022-11-08T17:59:25.399Z,16.70
2022-11-08T18:04:29.280Z,16.60
2022-11-08T18:09:31.580Z,16.60
2022-11-08T18:14:33.856Z,16.50
2022-11-08T18:19:37.154Z,16.60
2022-11-08T18:24:39.427Z,16.60
2022-11-08T18:29:41.669Z,16.60
2022-11-08T18:34:48.179Z,16.50
2022-11-08T18:39:50.437Z,16.60
2022-11-08T18:44:53.276Z,16.50
2022-11-08T18:49:59.360Z,16.50
2022-11-08T18:55:01.852Z,16.60
2022-11-08T19:00:05.393Z,16.60
2022-11-08T19:05:08.044Z,16.60
2022-11-08T19:10:10.537Z,16.60
2022-11-08T19:15:12.891Z,16.60
2022-11-08T19:20:15.584Z,16.70
2022-11-08T19:25:18.625Z,16.60
2022-11-08T19:30:21.255Z,16.60
2022-11-08T19:35:23.516Z,16.70
2022-11-08T19:40:31.756Z,16.60
2022-11-08T19:45:34.719Z,16.60
2022-11-08T19:50:42.700Z,16.60
2022-11-08T19:55:44.944Z,16.60
2022-11-08T20:00:47.394Z,16.60
2022-11-08T20:05:53.408Z,16.50
2022-11-08T20:10:55.653Z,16.50
2022-11-08T20:16:11.781Z,16.40
2022-11-08T20:21:15.860Z,16.60
2022-11-08T20:26:20.910Z,16.60
2022-11-08T20:31:24.225Z,16.40
2022-11-08T20:36:29.543Z,16.30
2022-11-08T20:41:35.626Z,16.30
2022-11-08T20:46:38.769Z,16.40
2022-11-08T20:51:41.216Z,16.30
2022-11-08T20:56:43.552Z,16.30
2022-11-08T21:01:46.015Z,16.40
2022-11-08T21:06:48.471Z,16.50
2022-11-08T21:11:50.825Z,16.50
2022-11-08T21:22:19.065Z,16.40
2022-11-08T21:27:23.649Z,16.40
2022-11-08T21:32:29.720Z,16.30
2022-11-08T21:37:32.389Z,16.30
2022-11-08T21:42:39.253Z,16.30
2022-11-08T21:47:42.598Z,16.10
2022-11-08T21:52:45.374Z,16.00
2022-11-08T21:57:47.847Z,15.80
2022-11-08T22:02:50.130Z,15.90
2022-11-08T22:07:52.472Z,15.80
2022-11-08T22:12:54.737Z,15.90
2022-11-08T22:23:19.413Z,15.90
2022-11-08T22:28:21.717Z,16.00
2022-11-08T22:33:24.195Z,15.90
2022-11-08T22:38:26.486Z,15.10
2022-11-08T22:43:28.768Z,16.00
2022-11-08T22:48:31.168Z,16.00
2022-11-08T22:53:33.961Z,15.90
2022-11-08T22:58:36.473Z,15.80
2022-11-08T23:03:39.034Z,15.80
2022-11-08T23:08:42.027Z,15.70
2022-11-08T23:14:03.036Z,15.80
2022-11-08T23:19:25.213Z,15.70
2022-11-08T23:24:27.735Z,15.80
2022-11-08T23:29:48.496Z,15.80
2022-11-08T23:34:50.764Z,15.70
2022-11-08T23:40:11.636Z,15.80
2022-11-08T23:45:14.041Z,15.70
2022-11-08T23:50:16.348Z,15.70
2022-11-08T23:55:18.611Z,15.60
